createdAt,value
2017-02-06T00:00:14.398Z,26.32
2017-02-06T00:00:28.926Z,26.35
2017-02-06T00:00:43.445Z,26.38
2017-02-06T00:00:57.948Z,26.3
2017-02-06T00:01:12.450Z,26.35
2017-02-06T00:01:26.989Z,26.35
2017-02-06T00:01:41.513Z,26.32
2017-02-06T00:01:56.069Z,26.27
2017-02-06T00:02:10.594Z,26.16
2017-02-06T00:02:25.137Z,26.27
2017-02-06T00:02:39.603Z,26.31
2017-02-06T00:02:54.067Z,26.27
2017-02-06T00:03:08.530Z,26.19
2017-02-06T00:03:23.049Z,26.26
2017-02-06T00:03:37.545Z,26.17
2017-02-06T00:03:52.048Z,26.2
2017-02-06T00:04:06.588Z,26.16
2017-02-06T00:04:21.125Z,26.16
2017-02-06T00:04:35.664Z,26.19
2017-02-06T00:04:50.176Z,26.16
2017-02-06T00:05:04.693Z,26.22
2017-02-06T00:05:19.204Z,26.17
2017-02-06T00:05:33.763Z,26.2
2017-02-06T00:05:48.657Z,26.15
2017-02-06T00:06:03.204Z,26.17
2017-02-06T00:06:17.681Z,26.07
2017-02-06T00:06:32.224Z,26.17
2017-02-06T00:06:46.731Z,26.12
2017-02-06T00:07:01.248Z,26.15
2017-02-06T00:07:15.803Z,26.12
2017-02-06T00:07:30.376Z,26.12
2017-02-06T00:07:44.961Z,26.12
2017-02-06T00:07:59.515Z,26.12
2017-02-06T00:08:14.044Z,26.15
2017-02-06T00:08:28.491Z,26.12
2017-02-06T00:08:42.996Z,26.07
2017-02-06T00:08:57.499Z,26.07
2017-02-06T00:09:12.026Z,26.2
2017-02-06T00:09:26.528Z,26.23
2017-02-06T00:09:41.261Z,26.19
2017-02-06T00:09:55.781Z,26.19
2017-02-06T00:10:10.313Z,26.17
2017-02-06T00:10:24.808Z,26.15
2017-02-06T00:10:39.318Z,26.07
2017-02-06T00:10:53.939Z,26.06
2017-02-06T00:11:08.474Z,26.17
2017-02-06T00:11:22.981Z,26.11
2017-02-06T00:11:37.532Z,26.15
2017-02-06T00:11:52.103Z,26.09
2017-02-06T00:12:06.588Z,26.12
2017-02-06T00:12:21.114Z,26.09
2017-02-06T00:12:35.676Z,26.03
2017-02-06T00:12:50.159Z,26.07
2017-02-06T00:13:04.695Z,26.09
2017-02-06T00:13:19.242Z,26.04
2017-02-06T00:13:33.812Z,26.06
2017-02-06T00:13:48.331Z,26.03
2017-02-06T00:14:02.847Z,25.99
2017-02-06T00:14:17.408Z,25.99
2017-02-06T00:14:32.013Z,25.97
2017-02-06T00:14:46.523Z,25.97
2017-02-06T00:15:01.067Z,26.03
2017-02-06T00:15:15.599Z,26
2017-02-06T00:15:30.123Z,25.91
2017-02-06T00:15:44.576Z,25.94
2017-02-06T00:15:59.139Z,25.93
2017-02-06T00:16:13.680Z,26
2017-02-06T00:16:28.203Z,25.93
2017-02-06T00:16:42.824Z,25.93
2017-02-06T00:16:57.451Z,25.93
2017-02-06T00:17:12.007Z,25.97
2017-02-06T00:17:26.510Z,25.89
2017-02-06T00:17:41.055Z,26
2017-02-06T00:17:55.524Z,25.99
2017-02-06T00:18:10.102Z,25.96
2017-02-06T00:18:24.661Z,25.91
2017-02-06T00:18:39.143Z,25.91
2017-02-06T00:18:53.658Z,25.94
2017-02-06T00:19:08.167Z,25.94
2017-02-06T00:19:22.663Z,25.91
2017-02-06T00:19:37.199Z,25.88
2017-02-06T00:19:51.781Z,25.86
2017-02-06T00:20:06.287Z,25.82
2017-02-06T00:20:20.823Z,25.89
2017-02-06T00:20:35.380Z,25.93
2017-02-06T00:20:50.210Z,25.82
2017-02-06T00:21:04.739Z,25.86
2017-02-06T00:21:19.277Z,25.89
2017-02-06T00:21:33.773Z,25.86
2017-02-06T00:21:48.283Z,25.89
2017-02-06T00:22:02.808Z,25.91
2017-02-06T00:22:17.391Z,25.79
2017-02-06T00:22:31.977Z,25.86
2017-02-06T00:22:46.562Z,25.84
2017-02-06T00:23:01.087Z,25.91
2017-02-06T00:23:15.584Z,25.79
2017-02-06T00:23:30.112Z,25.86
2017-02-06T00:23:44.640Z,25.86
2017-02-06T00:23:59.236Z,25.89
2017-02-06T00:24:13.786Z,25.86
2017-02-06T00:24:28.293Z,25.86
2017-02-06T00:24:42.792Z,25.91
2017-02-06T00:24:57.285Z,25.91
2017-02-06T00:25:11.798Z,25.88
2017-02-06T00:25:26.331Z,25.93
2017-02-06T00:25:40.842Z,25.88
2017-02-06T00:25:55.359Z,25.91
2017-02-06T00:26:09.888Z,25.88
2017-02-06T00:26:24.417Z,25.88
2017-02-06T00:26:38.891Z,25.84
2017-02-06T00:26:53.410Z,25.94
2017-02-06T00:27:07.974Z,25.84
2017-02-06T00:27:22.534Z,25.88
2017-02-06T00:27:37.077Z,25.89
2017-02-06T00:27:51.604Z,25.86
2017-02-06T00:28:06.093Z,25.88
2017-02-06T00:28:20.628Z,25.79
2017-02-06T00:28:35.189Z,25.93
2017-02-06T00:28:49.697Z,25.88
2017-02-06T00:29:04.203Z,25.94
2017-02-06T00:29:18.733Z,25.88
2017-02-06T00:29:33.336Z,25.91
2017-02-06T00:29:47.862Z,25.89
2017-02-06T00:30:02.396Z,25.91
2017-02-06T00:30:16.891Z,25.89
2017-02-06T00:30:31.474Z,25.79
2017-02-06T00:30:45.947Z,25.79
2017-02-06T00:31:00.531Z,25.84
2017-02-06T00:31:15.087Z,25.88
2017-02-06T00:31:29.660Z,25.79
2017-02-06T00:31:44.261Z,25.76
2017-02-06T00:31:58.771Z,25.79
2017-02-06T00:32:13.314Z,25.84
2017-02-06T00:32:27.819Z,25.82
2017-02-06T00:32:42.361Z,25.81
2017-02-06T00:32:56.849Z,25.75
2017-02-06T00:33:11.326Z,25.78
2017-02-06T00:33:25.866Z,25.85
2017-02-06T00:33:40.410Z,25.82
2017-02-06T00:33:54.958Z,25.74
2017-02-06T00:34:09.495Z,25.74
2017-02-06T00:34:24.051Z,25.74
2017-02-06T00:34:38.563Z,25.71
2017-02-06T00:34:53.099Z,25.71
2017-02-06T00:35:07.658Z,25.78
2017-02-06T00:35:22.172Z,25.69
2017-02-06T00:35:36.681Z,25.74
2017-02-06T00:35:51.173Z,25.71
2017-02-06T00:36:05.920Z,25.76
2017-02-06T00:36:20.420Z,25.78
2017-02-06T00:36:34.912Z,25.71
2017-02-06T00:36:49.404Z,25.75
2017-02-06T00:37:03.954Z,25.79
2017-02-06T00:37:18.472Z,25.67
2017-02-06T00:37:32.997Z,25.71
2017-02-06T00:37:47.516Z,25.7
2017-02-06T00:38:02.054Z,25.78
2017-02-06T00:38:16.555Z,25.67
2017-02-06T00:38:31.064Z,25.74
2017-02-06T00:38:45.578Z,25.78
2017-02-06T00:39:00.168Z,25.81
2017-02-06T00:39:14.747Z,25.78
2017-02-06T00:39:29.270Z,25.84
2017-02-06T00:39:43.775Z,25.91
2017-02-06T00:39:58.293Z,25.89
2017-02-06T00:40:12.832Z,25.91
2017-02-06T00:40:27.336Z,25.78
2017-02-06T00:40:41.862Z,25.91
2017-02-06T00:40:56.375Z,25.78
2017-02-06T00:41:10.893Z,25.79
2017-02-06T00:41:25.397Z,25.84
2017-02-06T00:41:39.970Z,25.81
2017-02-06T00:41:54.526Z,25.75
2017-02-06T00:42:09.067Z,25.78
2017-02-06T00:42:23.592Z,25.71
2017-02-06T00:42:38.124Z,25.76
2017-02-06T00:42:52.629Z,25.78
2017-02-06T00:43:07.185Z,25.89
2017-02-06T00:43:21.776Z,25.76
2017-02-06T00:43:36.300Z,25.78
2017-02-06T00:43:50.793Z,25.78
2017-02-06T00:44:05.337Z,25.74
2017-02-06T00:44:19.888Z,25.74
2017-02-06T00:44:34.467Z,25.79
2017-02-06T00:44:49.002Z,25.84
2017-02-06T00:45:03.526Z,25.81
2017-02-06T00:45:18.021Z,25.81
2017-02-06T00:45:32.574Z,25.78
2017-02-06T00:45:47.127Z,25.81
2017-02-06T00:46:01.591Z,25.75
2017-02-06T00:46:16.137Z,25.7
2017-02-06T00:46:30.722Z,25.69
2017-02-06T00:46:45.287Z,25.71
2017-02-06T00:46:59.816Z,25.76
2017-02-06T00:47:14.341Z,25.7
2017-02-06T00:47:28.845Z,25.74
2017-02-06T00:47:43.411Z,25.71
2017-02-06T00:47:57.868Z,25.71
2017-02-06T00:48:12.387Z,25.64
2017-02-06T00:48:26.898Z,25.7
2017-02-06T00:48:41.415Z,25.76
2017-02-06T00:48:55.998Z,25.7
2017-02-06T00:49:10.610Z,25.67
2017-02-06T00:49:25.174Z,25.7
2017-02-06T00:49:39.759Z,25.75
2017-02-06T00:49:54.300Z,25.78
2017-02-06T00:50:08.864Z,25.82
2017-02-06T00:50:23.426Z,25.74
2017-02-06T00:50:37.966Z,25.74
2017-02-06T00:50:52.460Z,25.67
2017-02-06T00:51:07.342Z,25.7
2017-02-06T00:51:21.888Z,25.75
2017-02-06T00:51:36.410Z,25.71
2017-02-06T00:51:50.960Z,25.69
2017-02-06T00:52:05.508Z,25.76
2017-02-06T00:52:20.000Z,25.7
2017-02-06T00:52:34.533Z,25.71
2017-02-06T00:52:49.065Z,25.7
2017-02-06T00:53:03.572Z,25.64
2017-02-06T00:53:18.079Z,25.63
2017-02-06T00:53:32.606Z,25.71
2017-02-06T00:53:47.139Z,25.64
2017-02-06T00:54:01.667Z,25.64
2017-02-06T00:54:16.215Z,25.63
2017-02-06T00:54:30.713Z,25.6
2017-02-06T00:54:45.194Z,25.63
2017-02-06T00:54:59.754Z,25.63
2017-02-06T00:55:14.273Z,25.59
2017-02-06T00:55:28.831Z,25.63
2017-02-06T00:55:43.339Z,25.64
2017-02-06T00:55:57.845Z,25.54
2017-02-06T00:56:12.333Z,25.52
2017-02-06T00:56:26.859Z,25.59
2017-02-06T00:56:41.383Z,25.64
2017-02-06T00:56:55.918Z,25.56
2017-02-06T00:57:10.368Z,25.56
2017-02-06T00:57:24.826Z,25.56
2017-02-06T00:57:39.337Z,25.59
2017-02-06T00:57:53.905Z,25.59
2017-02-06T00:58:08.396Z,25.52
2017-02-06T00:58:22.965Z,25.59
2017-02-06T00:58:37.513Z,25.56
2017-02-06T00:58:52.028Z,25.57
2017-02-06T00:59:06.563Z,25.56
2017-02-06T00:59:21.053Z,25.59
2017-02-06T00:59:35.596Z,25.54
2017-02-06T00:59:50.164Z,25.62
2017-02-06T01:00:04.722Z,25.57
2017-02-06T01:00:19.218Z,25.63
2017-02-06T01:00:33.709Z,25.62
2017-02-06T01:00:48.279Z,25.62
2017-02-06T01:01:02.877Z,25.62
2017-02-06T01:01:17.362Z,25.59
2017-02-06T01:01:31.874Z,25.54
2017-02-06T01:01:46.339Z,25.6
2017-02-06T01:02:00.896Z,25.63
2017-02-06T01:02:15.405Z,25.66
2017-02-06T01:02:30.014Z,25.64
2017-02-06T01:02:44.481Z,25.71
2017-02-06T01:02:59.033Z,25.75
2017-02-06T01:03:13.585Z,25.79
2017-02-06T01:03:28.067Z,25.78
2017-02-06T01:03:42.622Z,25.84
2017-02-06T01:03:57.201Z,25.88
2017-02-06T01:04:11.669Z,25.88
2017-02-06T01:04:26.167Z,25.91
2017-02-06T01:04:40.698Z,25.88
2017-02-06T01:04:55.210Z,25.91
2017-02-06T01:05:09.730Z,26.03
2017-02-06T01:05:24.275Z,25.89
2017-02-06T01:05:38.778Z,25.99
2017-02-06T01:05:53.318Z,25.99
2017-02-06T01:06:07.884Z,25.97
2017-02-06T01:06:22.633Z,25.96
2017-02-06T01:06:37.204Z,26
2017-02-06T01:06:51.791Z,26.06
2017-02-06T01:07:06.248Z,26.07
2017-02-06T01:07:20.831Z,26.16
2017-02-06T01:07:35.348Z,26.12
2017-02-06T01:07:49.933Z,26.16
2017-02-06T01:08:04.410Z,26.17
2017-02-06T01:08:18.924Z,26.2
2017-02-06T01:08:33.447Z,26.15
2017-02-06T01:08:47.961Z,26.27
2017-02-06T01:09:02.485Z,26.19
2017-02-06T01:09:16.998Z,26.16
2017-02-06T01:09:31.553Z,26.31
2017-02-06T01:09:46.096Z,26.39
2017-02-06T01:10:00.639Z,26.35
2017-02-06T01:10:15.171Z,26.34
2017-02-06T01:10:29.713Z,26.38
2017-02-06T01:10:44.252Z,26.31
2017-02-06T01:10:58.778Z,26.35
2017-02-06T01:11:13.297Z,26.34
2017-02-06T01:11:27.896Z,26.35
2017-02-06T01:11:42.487Z,26.32
2017-02-06T01:11:57.056Z,26.39
2017-02-06T01:12:11.589Z,26.32
2017-02-06T01:12:26.097Z,26.32
2017-02-06T01:12:40.628Z,26.35
2017-02-06T01:12:55.125Z,26.42
2017-02-06T01:13:09.650Z,26.41
2017-02-06T01:13:24.199Z,26.31
2017-02-06T01:13:38.766Z,26.41
2017-02-06T01:13:53.339Z,26.45
2017-02-06T01:14:07.928Z,26.45
2017-02-06T01:14:22.467Z,26.47
2017-02-06T01:14:37.006Z,26.39
2017-02-06T01:14:51.525Z,26.34
2017-02-06T01:15:06.063Z,26.44
2017-02-06T01:15:20.631Z,26.44
2017-02-06T01:15:35.163Z,26.32
2017-02-06T01:15:49.726Z,26.45
2017-02-06T01:16:04.259Z,26.35
2017-02-06T01:16:18.810Z,26.44
2017-02-06T01:16:33.388Z,26.32
2017-02-06T01:16:47.911Z,26.32
2017-02-06T01:17:02.395Z,26.35
2017-02-06T01:17:16.919Z,26.27
2017-02-06T01:17:31.504Z,26.3
2017-02-06T01:17:46.026Z,26.31
2017-02-06T01:18:00.618Z,26.27
2017-02-06T01:18:15.159Z,26.31
2017-02-06T01:18:29.719Z,26.35
2017-02-06T01:18:44.253Z,26.32
2017-02-06T01:18:58.776Z,26.32
2017-02-06T01:19:13.294Z,26.44
2017-02-06T01:19:27.866Z,26.41
2017-02-06T01:19:42.435Z,26.39
2017-02-06T01:19:56.993Z,26.35
2017-02-06T01:20:11.567Z,26.44
2017-02-06T01:20:26.124Z,26.39
2017-02-06T01:20:40.631Z,26.41
2017-02-06T01:20:55.112Z,26.39
2017-02-06T01:21:09.645Z,26.42
2017-02-06T01:21:24.421Z,26.44
2017-02-06T01:21:38.951Z,26.35
2017-02-06T01:21:53.445Z,26.35
2017-02-06T01:22:07.973Z,26.31
2017-02-06T01:22:22.536Z,26.34
2017-02-06T01:22:37.107Z,26.37
2017-02-06T01:22:52.181Z,26.34
2017-02-06T01:23:06.682Z,26.35
2017-02-06T01:23:21.245Z,26.22
2017-02-06T01:23:35.749Z,26.22
2017-02-06T01:23:50.296Z,26.2
2017-02-06T01:24:04.831Z,26.2
2017-02-06T01:24:19.300Z,26.17
2017-02-06T01:24:33.842Z,26.19
2017-02-06T01:24:48.387Z,26.19
2017-02-06T01:25:02.895Z,26.12
2017-02-06T01:25:17.444Z,26.17
2017-02-06T01:25:31.968Z,26.19
2017-02-06T01:25:46.492Z,26.17
2017-02-06T01:26:00.979Z,26.15
2017-02-06T01:26:15.506Z,26.07
2017-02-06T01:26:30.003Z,26.07
2017-02-06T01:26:44.595Z,26.16
2017-02-06T01:26:59.073Z,26.01
2017-02-06T01:27:13.642Z,26.01
2017-02-06T01:27:28.237Z,26.04
2017-02-06T01:27:42.741Z,26.15
2017-02-06T01:27:57.241Z,26.15
2017-02-06T01:28:11.783Z,26.09
2017-02-06T01:28:26.416Z,26.19
2017-02-06T01:28:41.001Z,26.22
2017-02-06T01:28:55.615Z,26.22
2017-02-06T01:29:10.164Z,26.31
2017-02-06T01:29:24.680Z,26.26
2017-02-06T01:29:39.153Z,26.34
2017-02-06T01:29:53.634Z,26.37
2017-02-06T01:30:08.147Z,26.31
2017-02-06T01:30:22.619Z,26.41
2017-02-06T01:30:37.117Z,26.47
2017-02-06T01:30:51.639Z,26.49
2017-02-06T01:31:06.196Z,26.45
2017-02-06T01:31:20.755Z,26.49
2017-02-06T01:31:35.231Z,26.52
2017-02-06T01:31:49.774Z,26.38
2017-02-06T01:32:04.303Z,26.41
2017-02-06T01:32:18.831Z,26.52
2017-02-06T01:32:33.411Z,26.5
2017-02-06T01:32:47.929Z,26.47
2017-02-06T01:33:02.420Z,26.49
2017-02-06T01:33:16.970Z,26.41
2017-02-06T01:33:31.474Z,26.42
2017-02-06T01:33:46.013Z,26.45
2017-02-06T01:34:00.504Z,26.53
2017-02-06T01:34:15.022Z,26.52
2017-02-06T01:34:29.585Z,26.44
2017-02-06T01:34:44.068Z,26.41
2017-02-06T01:34:58.504Z,26.5
2017-02-06T01:35:13.030Z,26.52
2017-02-06T01:35:27.581Z,26.45
2017-02-06T01:35:42.142Z,26.49
2017-02-06T01:35:56.627Z,26.44
2017-02-06T01:36:11.183Z,26.45
2017-02-06T01:36:25.993Z,26.45
2017-02-06T01:36:40.506Z,26.41
2017-02-06T01:36:55.022Z,26.47
2017-02-06T01:37:09.503Z,26.41
2017-02-06T01:37:24.068Z,26.35
2017-02-06T01:37:38.635Z,26.31
2017-02-06T01:37:53.167Z,26.32
2017-02-06T01:38:07.696Z,26.32
2017-02-06T01:38:22.254Z,26.31
2017-02-06T01:38:36.733Z,26.34
2017-02-06T01:38:51.345Z,26.31
2017-02-06T01:39:05.853Z,26.26
2017-02-06T01:39:20.388Z,26.2
2017-02-06T01:39:34.969Z,26.17
2017-02-06T01:39:49.496Z,26.16
2017-02-06T01:40:03.972Z,26.12
2017-02-06T01:40:18.505Z,26.06
2017-02-06T01:40:33.015Z,25.99
2017-02-06T01:40:47.561Z,25.96
2017-02-06T01:41:02.051Z,25.94
2017-02-06T01:41:16.637Z,25.93
2017-02-06T01:41:31.213Z,25.97
2017-02-06T01:41:45.742Z,26.01
2017-02-06T01:42:00.272Z,25.93
2017-02-06T01:42:14.794Z,25.88
2017-02-06T01:42:29.296Z,25.96
2017-02-06T01:42:43.845Z,25.93
2017-02-06T01:42:58.352Z,25.89
2017-02-06T01:43:12.868Z,25.91
2017-02-06T01:43:27.394Z,25.94
2017-02-06T01:43:41.880Z,25.79
2017-02-06T01:43:56.398Z,25.81
2017-02-06T01:44:10.894Z,25.93
2017-02-06T01:44:25.503Z,25.93
2017-02-06T01:44:40.001Z,25.91
2017-02-06T01:44:54.520Z,25.91
2017-02-06T01:45:09.084Z,25.89
2017-02-06T01:45:23.655Z,25.89
2017-02-06T01:45:38.200Z,25.86
2017-02-06T01:45:52.695Z,25.79
2017-02-06T01:46:07.270Z,25.81
2017-02-06T01:46:21.735Z,25.93
2017-02-06T01:46:36.245Z,25.89
2017-02-06T01:46:50.869Z,25.94
2017-02-06T01:47:05.358Z,25.94
2017-02-06T01:47:19.899Z,25.89
2017-02-06T01:47:34.358Z,25.93
2017-02-06T01:47:48.898Z,25.96
2017-02-06T01:48:03.428Z,25.94
2017-02-06T01:48:17.962Z,25.82
2017-02-06T01:48:32.467Z,25.91
2017-02-06T01:48:47.008Z,25.89
2017-02-06T01:49:01.606Z,25.82
2017-02-06T01:49:16.111Z,25.93
2017-02-06T01:49:30.694Z,25.91
2017-02-06T01:49:45.267Z,25.96
2017-02-06T01:49:59.820Z,25.93
2017-02-06T01:50:14.312Z,25.97
2017-02-06T01:50:28.782Z,25.93
2017-02-06T01:50:43.270Z,25.82
2017-02-06T01:50:57.815Z,25.81
2017-02-06T01:51:12.375Z,25.79
2017-02-06T01:51:26.934Z,25.79
2017-02-06T01:51:41.812Z,25.78
2017-02-06T01:51:56.346Z,25.76
2017-02-06T01:52:10.802Z,25.67
2017-02-06T01:52:25.337Z,25.71
2017-02-06T01:52:39.826Z,25.69
2017-02-06T01:52:54.326Z,25.74
2017-02-06T01:53:08.896Z,25.7
2017-02-06T01:53:23.417Z,25.67
2017-02-06T01:53:37.916Z,25.7
2017-02-06T01:53:52.441Z,25.66
2017-02-06T01:54:06.937Z,25.64
2017-02-06T01:54:21.409Z,25.66
2017-02-06T01:54:35.944Z,25.69
2017-02-06T01:54:50.458Z,25.64
2017-02-06T01:55:04.982Z,25.57
2017-02-06T01:55:19.473Z,25.59
2017-02-06T01:55:34.017Z,25.59
2017-02-06T01:55:48.548Z,25.52
2017-02-06T01:56:03.043Z,25.56
2017-02-06T01:56:17.564Z,25.56
2017-02-06T01:56:32.154Z,25.51
2017-02-06T01:56:46.639Z,25.48
2017-02-06T01:57:01.199Z,25.44
2017-02-06T01:57:15.752Z,25.49
2017-02-06T01:57:30.232Z,25.51
2017-02-06T01:57:44.769Z,25.54
2017-02-06T01:57:59.265Z,25.42
2017-02-06T01:58:13.813Z,25.54
2017-02-06T01:58:28.350Z,25.51
2017-02-06T01:58:42.828Z,25.47
2017-02-06T01:58:57.337Z,25.47
2017-02-06T01:59:11.909Z,25.52
2017-02-06T01:59:26.447Z,25.52
2017-02-06T01:59:40.962Z,25.52
2017-02-06T01:59:55.499Z,25.6
2017-02-06T02:00:09.978Z,25.54
2017-02-06T02:00:24.594Z,25.6
2017-02-06T02:00:39.146Z,25.54
2017-02-06T02:00:53.649Z,25.6
2017-02-06T02:01:08.157Z,25.6
2017-02-06T02:01:22.645Z,25.66
2017-02-06T02:01:37.167Z,25.64
2017-02-06T02:01:51.684Z,25.66
2017-02-06T02:02:06.207Z,25.67
2017-02-06T02:02:20.735Z,25.64
2017-02-06T02:02:35.271Z,25.69
2017-02-06T02:02:49.823Z,25.63
2017-02-06T02:03:04.351Z,25.62
2017-02-06T02:03:18.901Z,25.63
2017-02-06T02:03:33.420Z,25.57
2017-02-06T02:03:47.894Z,25.54
2017-02-06T02:04:02.436Z,25.54
2017-02-06T02:04:16.961Z,25.52
2017-02-06T02:04:31.492Z,25.52
2017-02-06T02:04:46.009Z,25.44
2017-02-06T02:05:00.496Z,25.45
2017-02-06T02:05:14.973Z,25.37
2017-02-06T02:05:29.485Z,25.39
2017-02-06T02:05:44.013Z,25.37
2017-02-06T02:05:58.515Z,25.37
2017-02-06T02:06:13.066Z,25.37
2017-02-06T02:06:27.643Z,25.39
2017-02-06T02:06:42.409Z,25.48
2017-02-06T02:06:56.948Z,25.47
2017-02-06T02:07:11.480Z,25.47
2017-02-06T02:07:26.001Z,25.52
2017-02-06T02:07:40.496Z,25.49
2017-02-06T02:07:54.994Z,25.52
2017-02-06T02:08:09.526Z,25.59
2017-02-06T02:08:24.021Z,25.54
2017-02-06T02:08:38.615Z,25.47
2017-02-06T02:08:53.193Z,25.52
2017-02-06T02:09:07.776Z,25.49
2017-02-06T02:09:22.240Z,25.47
2017-02-06T02:09:36.811Z,25.45
2017-02-06T02:09:51.385Z,25.51
2017-02-06T02:10:05.915Z,25.48
2017-02-06T02:10:20.420Z,25.51
2017-02-06T02:10:34.928Z,25.44
2017-02-06T02:10:49.436Z,25.42
2017-02-06T02:11:03.943Z,25.34
2017-02-06T02:11:18.496Z,25.33
2017-02-06T02:11:33.007Z,25.3
2017-02-06T02:11:47.522Z,25.33
2017-02-06T02:12:02.122Z,25.12
2017-02-06T02:12:16.639Z,25.15
2017-02-06T02:12:31.155Z,25.17
2017-02-06T02:12:45.847Z,25.14
2017-02-06T02:13:00.407Z,25.09
2017-02-06T02:13:14.966Z,25.12
2017-02-06T02:13:29.487Z,25.05
2017-02-06T02:13:44.038Z,25.02
2017-02-06T02:13:58.614Z,24.94
2017-02-06T02:14:13.233Z,24.96
2017-02-06T02:14:27.794Z,24.93
2017-02-06T02:14:42.318Z,24.96
2017-02-06T02:14:56.852Z,24.93
2017-02-06T02:15:11.449Z,24.94
2017-02-06T02:15:26.056Z,24.96
2017-02-06T02:15:40.628Z,24.92
2017-02-06T02:15:55.201Z,24.93
2017-02-06T02:16:09.733Z,24.9
2017-02-06T02:16:24.350Z,24.93
2017-02-06T02:16:38.881Z,24.92
2017-02-06T02:16:53.363Z,24.92
2017-02-06T02:17:07.914Z,24.97
2017-02-06T02:17:22.464Z,24.97
2017-02-06T02:17:37.032Z,25
2017-02-06T02:17:51.583Z,25.01
2017-02-06T02:18:06.097Z,25.02
2017-02-06T02:18:20.615Z,24.94
2017-02-06T02:18:35.137Z,25.05
2017-02-06T02:18:49.694Z,24.96
2017-02-06T02:19:04.202Z,25.01
2017-02-06T02:19:18.697Z,25.02
2017-02-06T02:19:33.222Z,25.01
2017-02-06T02:19:48.025Z,24.93
2017-02-06T02:20:02.569Z,24.96
2017-02-06T02:20:17.097Z,24.9
2017-02-06T02:20:31.648Z,24.94
2017-02-06T02:20:46.190Z,24.86
2017-02-06T02:21:00.716Z,24.96
2017-02-06T02:21:15.284Z,25
2017-02-06T02:21:29.808Z,24.86
2017-02-06T02:21:44.543Z,24.9
2017-02-06T02:21:59.073Z,24.85
2017-02-06T02:22:13.631Z,24.87
2017-02-06T02:22:28.107Z,24.86
2017-02-06T02:22:42.680Z,24.82
2017-02-06T02:22:57.197Z,24.85
2017-02-06T02:23:11.761Z,24.82
2017-02-06T02:23:26.254Z,24.85
2017-02-06T02:23:40.834Z,24.83
2017-02-06T02:23:55.395Z,24.8
2017-02-06T02:24:10.011Z,24.75
2017-02-06T02:24:24.596Z,24.9
2017-02-06T02:24:39.109Z,24.83
2017-02-06T02:24:53.619Z,24.82
2017-02-06T02:25:08.135Z,24.74
2017-02-06T02:25:22.631Z,24.77
2017-02-06T02:25:37.156Z,24.7
2017-02-06T02:25:51.643Z,24.66
2017-02-06T02:26:06.173Z,24.7
2017-02-06T02:26:20.736Z,24.69
2017-02-06T02:26:35.228Z,24.7
2017-02-06T02:26:49.742Z,24.8
2017-02-06T02:27:04.314Z,24.78
2017-02-06T02:27:18.835Z,24.61
2017-02-06T02:27:33.408Z,24.71
2017-02-06T02:27:47.909Z,24.67
2017-02-06T02:28:02.446Z,24.69
2017-02-06T02:28:17.017Z,24.71
2017-02-06T02:28:31.573Z,24.64
2017-02-06T02:28:46.135Z,24.7
2017-02-06T02:29:00.668Z,24.67
2017-02-06T02:29:15.216Z,24.67
2017-02-06T02:29:29.718Z,24.75
2017-02-06T02:29:44.273Z,24.74
2017-02-06T02:29:58.834Z,24.67
2017-02-06T02:30:13.341Z,24.74
2017-02-06T02:30:27.858Z,24.64
2017-02-06T02:30:42.369Z,24.8
2017-02-06T02:30:56.883Z,24.7
2017-02-06T02:31:11.425Z,24.63
2017-02-06T02:31:25.882Z,24.69
2017-02-06T02:31:40.450Z,24.64
2017-02-06T02:31:54.998Z,24.69
2017-02-06T02:32:09.558Z,24.63
2017-02-06T02:32:24.126Z,24.7
2017-02-06T02:32:38.642Z,24.7
2017-02-06T02:32:53.204Z,24.78
2017-02-06T02:33:07.714Z,24.7
2017-02-06T02:33:22.254Z,24.75
2017-02-06T02:33:36.709Z,24.7
2017-02-06T02:33:51.241Z,24.66
2017-02-06T02:34:05.728Z,24.67
2017-02-06T02:34:20.242Z,24.67
2017-02-06T02:34:34.770Z,24.54
2017-02-06T02:34:49.319Z,24.58
2017-02-06T02:35:03.818Z,24.51
2017-02-06T02:35:18.363Z,24.51
2017-02-06T02:35:32.946Z,24.67
2017-02-06T02:35:47.496Z,24.59
2017-02-06T02:36:01.982Z,24.61
2017-02-06T02:36:16.451Z,24.64
2017-02-06T02:36:30.954Z,24.7
2017-02-06T02:36:45.449Z,24.64
2017-02-06T02:37:00.265Z,24.7
2017-02-06T02:37:14.818Z,24.67
2017-02-06T02:37:29.375Z,24.63
2017-02-06T02:37:43.922Z,24.59
2017-02-06T02:37:58.460Z,24.56
2017-02-06T02:38:13.014Z,24.51
2017-02-06T02:38:27.543Z,24.45
2017-02-06T02:38:42.021Z,24.46
2017-02-06T02:38:56.550Z,24.42
2017-02-06T02:39:11.084Z,24.37
2017-02-06T02:39:25.606Z,24.36
2017-02-06T02:39:40.170Z,24.34
2017-02-06T02:39:54.683Z,24.39
2017-02-06T02:40:09.241Z,24.32
2017-02-06T02:40:23.768Z,24.37
2017-02-06T02:40:38.327Z,24.4
2017-02-06T02:40:52.876Z,24.26
2017-02-06T02:41:07.428Z,24.29
2017-02-06T02:41:21.883Z,24.3
2017-02-06T02:41:36.384Z,24.24
2017-02-06T02:41:50.938Z,24.42
2017-02-06T02:42:05.460Z,24.26
2017-02-06T02:42:19.984Z,24.22
2017-02-06T02:42:34.514Z,24.26
2017-02-06T02:42:49.030Z,24.26
2017-02-06T02:43:03.631Z,24.24
2017-02-06T02:43:18.135Z,24.22
2017-02-06T02:43:32.610Z,24.22
2017-02-06T02:43:47.226Z,24.21
2017-02-06T02:44:01.799Z,24.22
2017-02-06T02:44:16.409Z,24.29
2017-02-06T02:44:30.939Z,24.15
2017-02-06T02:44:45.521Z,24.18
2017-02-06T02:45:00.007Z,24.19
2017-02-06T02:45:14.544Z,24.24
2017-02-06T02:45:29.054Z,24.21
2017-02-06T02:45:43.560Z,24.18
2017-02-06T02:45:58.046Z,24.29
2017-02-06T02:46:12.556Z,24.17
2017-02-06T02:46:27.102Z,24.11
2017-02-06T02:46:41.719Z,24.19
2017-02-06T02:46:56.243Z,24.09
2017-02-06T02:47:10.739Z,24.17
2017-02-06T02:47:25.265Z,24.15
2017-02-06T02:47:39.771Z,24.12
2017-02-06T02:47:54.329Z,24.15
2017-02-06T02:48:08.890Z,24.12
2017-02-06T02:48:23.439Z,24.04
2017-02-06T02:48:38.030Z,24.08
2017-02-06T02:48:52.551Z,24.08
2017-02-06T02:49:07.130Z,24.08
2017-02-06T02:49:21.607Z,24.14
2017-02-06T02:49:36.136Z,24.08
2017-02-06T02:49:50.658Z,23.99
2017-02-06T02:50:05.195Z,24.08
2017-02-06T02:50:19.724Z,24
2017-02-06T02:50:34.248Z,23.9
2017-02-06T02:50:48.797Z,23.97
2017-02-06T02:51:03.378Z,23.97
2017-02-06T02:51:17.941Z,23.94
2017-02-06T02:51:32.457Z,24
2017-02-06T02:51:46.979Z,23.93
2017-02-06T02:52:01.781Z,23.99
2017-02-06T02:52:16.258Z,23.97
2017-02-06T02:52:30.737Z,23.94
2017-02-06T02:52:45.221Z,23.9
2017-02-06T02:52:59.795Z,23.96
2017-02-06T02:53:14.358Z,23.94
2017-02-06T02:53:28.884Z,23.94
2017-02-06T02:53:43.459Z,23.89
2017-02-06T02:53:57.955Z,24
2017-02-06T02:54:12.487Z,23.93
2017-02-06T02:54:27.029Z,23.94
2017-02-06T02:54:41.537Z,23.94
2017-02-06T02:54:56.068Z,23.92
2017-02-06T02:55:10.569Z,23.97
2017-02-06T02:55:25.076Z,23.99
2017-02-06T02:55:39.635Z,24
2017-02-06T02:55:54.119Z,23.97
2017-02-06T02:56:08.653Z,23.96
2017-02-06T02:56:23.189Z,23.94
2017-02-06T02:56:37.659Z,23.85
2017-02-06T02:56:52.179Z,24
2017-02-06T02:57:06.739Z,23.96
2017-02-06T02:57:21.306Z,24.03
2017-02-06T02:57:35.922Z,24.07
2017-02-06T02:57:50.510Z,24.03
2017-02-06T02:58:05.048Z,23.99
2017-02-06T02:58:19.594Z,24.02
2017-02-06T02:58:34.120Z,23.99
2017-02-06T02:58:48.664Z,23.94
2017-02-06T02:59:03.224Z,23.97
2017-02-06T02:59:17.764Z,23.96
2017-02-06T02:59:32.309Z,23.99
2017-02-06T02:59:46.840Z,23.94
2017-02-06T03:00:01.373Z,23.87
2017-02-06T03:00:15.863Z,23.92
2017-02-06T03:00:30.467Z,23.9
2017-02-06T03:00:44.993Z,23.97
2017-02-06T03:00:59.500Z,23.92
2017-02-06T03:01:14.052Z,23.82
2017-02-06T03:01:28.645Z,23.82
2017-02-06T03:01:43.191Z,23.82
2017-02-06T03:01:57.764Z,23.82
2017-02-06T03:02:12.305Z,23.81
2017-02-06T03:02:26.892Z,23.77
2017-02-06T03:02:41.430Z,23.84
2017-02-06T03:02:55.925Z,23.75
2017-02-06T03:03:10.468Z,23.81
2017-02-06T03:03:24.969Z,23.87
2017-02-06T03:03:39.461Z,23.75
2017-02-06T03:03:53.927Z,23.72
2017-02-06T03:04:08.473Z,23.77
2017-02-06T03:04:23.032Z,23.82
2017-02-06T03:04:37.519Z,23.77
2017-02-06T03:04:52.062Z,23.81
2017-02-06T03:05:06.620Z,23.82
2017-02-06T03:05:21.171Z,23.75
2017-02-06T03:05:35.683Z,23.81
2017-02-06T03:05:50.252Z,23.78
2017-02-06T03:06:04.806Z,23.75
2017-02-06T03:06:19.411Z,23.74
2017-02-06T03:06:34.012Z,23.77
2017-02-06T03:06:48.593Z,23.71
2017-02-06T03:07:03.369Z,23.75
2017-02-06T03:07:17.946Z,23.72
2017-02-06T03:07:32.460Z,23.72
2017-02-06T03:07:46.979Z,23.75
2017-02-06T03:08:01.540Z,23.74